createdAt,value
2022-08-21T00:02:02.144Z,14.38
2022-08-21T00:04:29.524Z,14.37
2022-08-21T00:06:58.034Z,14.25
2022-08-21T00:09:24.465Z,14.35
2022-08-21T00:11:50.995Z,14.31
2022-08-21T00:14:17.817Z,14.33
2022-08-21T00:16:44.345Z,14.33
2022-08-21T00:19:11.118Z,14.32
2022-08-21T00:21:37.746Z,14.33
2022-08-21T00:24:04.727Z,14.32
2022-08-21T00:26:31.195Z,14.33
2022-08-21T00:28:58.402Z,14.33
2022-08-21T00:31:25.898Z,14.27
2022-08-21T00:33:52.603Z,14.32
2022-08-21T00:36:24.427Z,14.21
2022-08-21T00:38:50.878Z,14.30
2022-08-21T00:41:36.289Z,14.29
2022-08-21T00:44:04.891Z,14.22
2022-08-21T00:46:31.686Z,14.28
2022-08-21T00:48:59.418Z,14.29
2022-08-21T00:51:40.927Z,14.27
2022-08-21T00:54:12.942Z,14.09
2022-08-21T00:56:48.408Z,14.22
2022-08-21T00:59:15.628Z,14.18
2022-08-21T01:01:42.054Z,14.20
2022-08-21T01:04:08.611Z,14.18
2022-08-21T01:06:36.083Z,14.06
2022-08-21T01:09:03.722Z,14.16
2022-08-21T01:11:30.827Z,14.00
2022-08-21T01:13:57.421Z,14.12
2022-08-21T01:16:24.469Z,14.11
2022-08-21T01:18:52.140Z,14.08
2022-08-21T01:21:28.675Z,14.09
2022-08-21T01:23:57.473Z,14.09
2022-08-21T01:26:34.150Z,14.09
2022-08-21T01:29:10.968Z,14.08
2022-08-21T01:31:38.118Z,14.07
2022-08-21T01:34:05.821Z,14.05
2022-08-21T01:36:32.579Z,13.98
2022-08-21T01:38:59.255Z,13.98
2022-08-21T01:41:25.814Z,13.99
2022-08-21T01:43:52.284Z,13.92
2022-08-21T01:46:19.312Z,13.88
2022-08-21T01:48:45.807Z,13.89
2022-08-21T01:51:12.972Z,13.87
2022-08-21T01:53:40.347Z,13.71
2022-08-21T01:56:12.719Z,13.83
2022-08-21T01:58:42.394Z,13.80
2022-08-21T02:01:10.326Z,13.80
2022-08-21T02:03:37.707Z,13.77
2022-08-21T02:06:07.729Z,13.75
2022-08-21T02:08:34.965Z,13.66
2022-08-21T02:11:01.671Z,13.46
2022-08-21T02:13:28.075Z,13.46
2022-08-21T02:15:54.522Z,13.71
2022-08-21T02:18:21.177Z,13.67
2022-08-21T02:20:56.026Z,13.68
2022-08-21T02:23:26.640Z,13.66
2022-08-21T02:25:57.939Z,13.66
2022-08-21T02:28:24.618Z,13.57
2022-08-21T02:30:53.486Z,13.64
2022-08-21T02:33:20.492Z,13.63
2022-08-21T02:35:48.159Z,13.63
2022-08-21T02:38:18.520Z,13.65
2022-08-21T02:40:48.085Z,13.76
2022-08-21T02:43:16.485Z,13.66
2022-08-21T02:45:44.624Z,13.68
2022-08-21T02:48:14.630Z,13.68
2022-08-21T02:50:44.279Z,13.67
2022-08-21T02:53:15.324Z,13.68
2022-08-21T02:55:41.796Z,13.69
2022-08-21T02:58:09.138Z,13.68
2022-08-21T03:00:37.697Z,13.69
2022-08-21T03:03:05.788Z,13.69
2022-08-21T03:05:33.872Z,13.63
2022-08-21T03:08:02.790Z,13.70
2022-08-21T03:10:30.048Z,13.69
2022-08-21T03:12:56.627Z,13.67
2022-08-21T03:15:25.706Z,13.62
2022-08-21T03:17:55.335Z,13.70
2022-08-21T03:20:24.858Z,13.69
2022-08-21T03:22:53.279Z,13.67
2022-08-21T03:25:28.349Z,13.63
2022-08-21T03:28:12.876Z,13.69
2022-08-21T03:30:45.427Z,13.70
2022-08-21T03:33:14.990Z,13.69
2022-08-21T03:35:44.173Z,13.67
2022-08-21T03:38:11.311Z,13.66
2022-08-21T03:40:37.853Z,13.66
2022-08-21T03:43:04.312Z,13.66
2022-08-21T03:45:30.831Z,13.66
2022-08-21T03:47:58.985Z,13.65
2022-08-21T03:50:28.011Z,13.65
2022-08-21T03:52:54.561Z,13.65
2022-08-21T03:55:21.190Z,13.66
2022-08-21T03:57:47.807Z,13.66
2022-08-21T04:00:16.158Z,13.67
2022-08-21T04:02:44.618Z,13.51
2022-08-21T04:05:13.589Z,13.54
2022-08-21T04:07:42.951Z,13.66
2022-08-21T04:10:09.792Z,13.67
2022-08-21T04:12:36.399Z,13.60
2022-08-21T04:15:03.146Z,13.67
2022-08-21T04:17:29.617Z,13.51
2022-08-21T04:19:56.197Z,13.64
2022-08-21T04:22:23.207Z,13.67
2022-08-21T04:24:49.778Z,13.53
2022-08-21T04:27:16.206Z,13.70
2022-08-21T04:29:42.629Z,13.76
2022-08-21T04:32:09.212Z,13.82
2022-08-21T04:34:35.682Z,13.88
2022-08-21T04:37:02.110Z,13.89
2022-08-21T04:39:29.718Z,13.95
2022-08-21T04:41:56.523Z,14.08
2022-08-21T04:44:22.942Z,14.18
2022-08-21T04:46:49.357Z,14.25
2022-08-21T04:49:15.834Z,14.32
2022-08-21T04:51:42.516Z,14.36
2022-08-21T04:54:13.319Z,14.48
2022-08-21T04:56:48.157Z,14.55
2022-08-21T04:59:25.228Z,14.61
2022-08-21T05:01:52.703Z,14.68
2022-08-21T05:04:23.399Z,14.76
2022-08-21T05:06:52.380Z,14.82
2022-08-21T05:09:20.375Z,14.90
2022-08-21T05:11:47.271Z,14.93
2022-08-21T05:14:13.999Z,15.05
2022-08-21T05:16:41.533Z,15.13
2022-08-21T05:19:08.290Z,15.18
2022-08-21T05:21:36.076Z,15.35
2022-08-21T05:24:03.114Z,15.47
2022-08-21T05:26:29.555Z,15.57
2022-08-21T05:28:57.383Z,15.68
2022-08-21T05:31:24.117Z,15.81
2022-08-21T05:33:50.747Z,15.91
2022-08-21T05:36:19.416Z,15.98
2022-08-21T05:38:46.846Z,16.10
2022-08-21T05:41:13.579Z,16.20
2022-08-21T05:43:40.316Z,16.19
2022-08-21T05:46:08.615Z,16.36
2022-08-21T05:48:36.614Z,16.49
2022-08-21T05:51:12.185Z,16.62
2022-08-21T05:53:39.398Z,16.67
2022-08-21T05:56:06.340Z,16.83
2022-08-21T05:58:34.128Z,16.79
2022-08-21T06:01:03.116Z,17.06
2022-08-21T06:03:32.902Z,17.19
2022-08-21T06:05:59.699Z,17.30
2022-08-21T06:08:27.108Z,17.42
2022-08-21T06:10:55.720Z,17.59
2022-08-21T06:13:23.310Z,17.66
2022-08-21T06:15:51.186Z,17.91
2022-08-21T06:18:17.752Z,18.06
2022-08-21T06:20:45.060Z,18.21
2022-08-21T06:23:11.578Z,18.36
2022-08-21T06:25:37.985Z,18.47
2022-08-21T06:28:07.492Z,18.60
2022-08-21T06:30:34.950Z,18.64
2022-08-21T06:33:02.440Z,18.82
2022-08-21T06:35:30.072Z,18.84
2022-08-21T06:37:58.139Z,18.93
2022-08-21T06:40:25.089Z,18.97
2022-08-21T06:42:51.596Z,19.04
2022-08-21T06:45:18.422Z,19.07
2022-08-21T06:47:44.858Z,19.11
2022-08-21T06:50:11.510Z,19.18
2022-08-21T06:52:38.538Z,19.25
2022-08-21T06:55:07.574Z,19.36
2022-08-21T06:57:34.591Z,19.43
2022-08-21T07:00:01.186Z,19.54
2022-08-21T07:02:27.665Z,19.67
2022-08-21T07:04:54.191Z,19.83
2022-08-21T07:07:20.599Z,20.01
2022-08-21T07:09:47.031Z,20.21
2022-08-21T07:12:13.912Z,20.32
2022-08-21T07:14:40.427Z,20.48
2022-08-21T07:17:06.892Z,20.60
2022-08-21T07:19:33.371Z,20.72
2022-08-21T07:22:03.092Z,20.81
2022-08-21T07:24:30.188Z,20.97
2022-08-21T07:26:56.654Z,21.09
2022-08-21T07:29:23.089Z,21.20
2022-08-21T07:31:49.546Z,21.30
2022-08-21T07:34:17.225Z,21.39
2022-08-21T07:36:43.733Z,21.51
2022-08-21T07:39:10.402Z,21.62
2022-08-21T07:41:37.131Z,21.70
2022-08-21T07:44:04.083Z,21.77
2022-08-21T07:46:33.163Z,21.90
2022-08-21T07:48:59.638Z,22.00
2022-08-21T07:51:28.654Z,22.08
2022-08-21T07:53:58.678Z,22.24
2022-08-21T07:56:25.297Z,22.50
2022-08-21T07:58:51.790Z,22.48
2022-08-21T08:01:18.507Z,22.55
2022-08-21T08:03:46.095Z,22.54
2022-08-21T08:06:17.598Z,22.74
2022-08-21T08:08:44.127Z,22.77
2022-08-21T08:11:11.965Z,22.77
2022-08-21T08:13:44.450Z,22.86
2022-08-21T08:16:11.181Z,22.88
2022-08-21T08:18:38.344Z,22.92
2022-08-21T08:21:05.989Z,22.91
2022-08-21T08:23:33.397Z,22.88
2022-08-21T08:26:00.148Z,22.96
2022-08-21T08:28:28.098Z,23.01
2022-08-21T08:30:54.569Z,23.09
2022-08-21T08:33:21.258Z,23.16
2022-08-21T08:35:50.304Z,23.27
2022-08-21T08:38:20.917Z,23.40
2022-08-21T08:41:19.853Z,23.54
2022-08-21T08:43:54.442Z,23.47
2022-08-21T08:46:31.575Z,23.62
2022-08-21T08:49:04.099Z,23.64
2022-08-21T08:51:55.860Z,23.72
2022-08-21T08:54:42.505Z,23.65
2022-08-21T08:57:16.874Z,23.63
2022-08-21T08:59:49.263Z,23.82
2022-08-21T09:02:17.685Z,23.87
2022-08-21T09:04:47.689Z,23.97
2022-08-21T09:07:25.298Z,24.21
2022-08-21T09:10:29.026Z,24.21
2022-08-21T09:13:10.354Z,24.27
2022-08-21T09:15:55.555Z,24.35
2022-08-21T09:18:28.497Z,24.37
2022-08-21T09:21:14.491Z,24.58
2022-08-21T09:23:56.344Z,24.70
2022-08-21T09:26:40.726Z,24.80
2022-08-21T09:29:11.612Z,24.98
2022-08-21T09:31:39.234Z,25.23
2022-08-21T09:34:09.705Z,25.45
2022-08-21T09:36:43.975Z,25.88
2022-08-21T09:39:13.439Z,26.30
2022-08-21T09:41:41.114Z,26.65
2022-08-21T09:44:09.492Z,27.00
2022-08-21T09:46:37.305Z,27.37
2022-08-21T09:49:06.870Z,27.61
2022-08-21T09:51:52.415Z,27.88
2022-08-21T09:54:22.525Z,27.96
2022-08-21T09:57:20.059Z,28.02
2022-08-21T09:59:47.823Z,27.94
2022-08-21T10:02:32.244Z,27.90
2022-08-21T10:05:03.778Z,27.67
2022-08-21T10:07:32.906Z,27.47
2022-08-21T10:10:05.332Z,27.47
2022-08-21T10:13:13.015Z,27.43
2022-08-21T10:16:05.747Z,27.34
2022-08-21T10:18:43.370Z,27.35
2022-08-21T10:21:24.614Z,27.42
2022-08-21T10:24:24.006Z,27.63
2022-08-21T10:27:19.592Z,27.85
2022-08-21T10:30:02.416Z,27.92
2022-08-21T10:32:44.550Z,27.93
2022-08-21T10:35:15.405Z,28.00
2022-08-21T10:37:50.951Z,27.93
2022-08-21T10:40:37.898Z,27.96
2022-08-21T10:43:39.271Z,27.48
2022-08-21T10:46:11.805Z,27.85
2022-08-21T10:48:44.075Z,27.75
2022-08-21T10:51:51.215Z,28.01
2022-08-21T10:54:45.564Z,28.08
2022-08-21T10:57:32.368Z,28.28
2022-08-21T11:00:12.763Z,28.45
2022-08-21T11:02:57.542Z,28.58
2022-08-21T11:05:36.263Z,28.61
2022-08-21T11:08:09.524Z,28.75
2022-08-21T11:10:59.331Z,28.99
2022-08-21T11:13:41.408Z,29.01
2022-08-21T11:16:27.117Z,29.17
2022-08-21T11:19:01.889Z,29.00
2022-08-21T11:21:31.977Z,28.90
2022-08-21T11:24:10.736Z,28.83
2022-08-21T11:26:43.976Z,28.82
2022-08-21T11:29:18.620Z,28.63
2022-08-21T11:32:03.858Z,28.82
2022-08-21T11:34:58.318Z,28.86
2022-08-21T11:37:51.202Z,28.90
2022-08-21T11:40:38.774Z,28.85
2022-08-21T11:43:35.810Z,28.86
2022-08-21T11:46:19.907Z,28.81
2022-08-21T11:48:49.161Z,28.68
2022-08-21T11:51:34.395Z,28.60
2022-08-21T11:54:11.885Z,28.43
2022-08-21T11:56:44.311Z,28.34
2022-08-21T11:59:17.670Z,28.43
2022-08-21T12:01:46.672Z,28.58
2022-08-21T12:04:30.273Z,28.77
2022-08-21T12:06:57.370Z,29.02
2022-08-21T12:09:26.582Z,29.43
2022-08-21T12:12:23.507Z,29.48
2022-08-21T12:14:52.535Z,29.81
2022-08-21T12:17:27.616Z,30.13
2022-08-21T12:20:15.585Z,30.14
2022-08-21T12:22:42.604Z,30.03
2022-08-21T12:25:19.652Z,30.04
2022-08-21T12:27:52.514Z,29.96
2022-08-21T12:30:37.515Z,30.21
2022-08-21T12:33:18.969Z,30.27
2022-08-21T12:35:46.631Z,30.24
2022-08-21T12:38:33.350Z,30.73
2022-08-21T12:41:16.122Z,30.80
2022-08-21T12:43:52.588Z,30.77
2022-08-21T12:46:23.290Z,30.95
2022-08-21T12:48:55.719Z,30.99
2022-08-21T12:51:34.446Z,31.03
2022-08-21T12:54:01.292Z,30.94
2022-08-21T12:56:32.385Z,31.18
2022-08-21T12:59:05.236Z,31.27
2022-08-21T13:01:41.999Z,31.20
2022-08-21T13:04:14.935Z,31.00
2022-08-21T13:06:45.901Z,30.82
2022-08-21T13:09:16.352Z,30.70
2022-08-21T13:11:46.392Z,30.54
2022-08-21T13:14:33.022Z,30.44
2022-08-21T13:17:01.336Z,30.28
2022-08-21T13:19:30.423Z,30.11
2022-08-21T13:21:57.294Z,29.95
2022-08-21T13:24:44.185Z,29.78
2022-08-21T13:27:27.804Z,29.58
2022-08-21T13:30:03.414Z,29.62
2022-08-21T13:32:32.689Z,29.48
2022-08-21T13:35:00.858Z,29.28
2022-08-21T13:37:29.926Z,29.29
2022-08-21T13:39:56.731Z,29.30
2022-08-21T13:42:24.985Z,29.23
2022-08-21T13:44:53.625Z,29.14
2022-08-21T13:47:20.419Z,29.01
2022-08-21T13:49:48.671Z,28.96
2022-08-21T13:52:20.244Z,28.90
2022-08-21T13:54:55.930Z,29.00
2022-08-21T13:57:29.736Z,29.04
2022-08-21T14:00:14.911Z,29.16
2022-08-21T14:02:44.284Z,28.84
2022-08-21T14:05:22.892Z,29.05
2022-08-21T14:07:51.920Z,29.04
2022-08-21T14:10:22.986Z,29.05
2022-08-21T14:12:53.630Z,28.99
2022-08-21T14:15:25.947Z,29.07
2022-08-21T14:17:52.673Z,29.07
2022-08-21T14:20:31.759Z,29.14
2022-08-21T14:22:58.473Z,29.11
2022-08-21T14:25:25.421Z,29.23
2022-08-21T14:28:13.842Z,29.42
2022-08-21T14:30:44.849Z,29.54
2022-08-21T14:33:15.229Z,29.73
2022-08-21T14:35:42.677Z,30.05
2022-08-21T14:38:22.573Z,30.30
2022-08-21T14:40:58.712Z,30.52
2022-08-21T14:43:27.453Z,30.56
2022-08-21T14:45:54.801Z,30.64
2022-08-21T14:48:21.220Z,30.68
2022-08-21T14:50:48.358Z,30.81
2022-08-21T14:53:14.852Z,30.82
2022-08-21T14:55:59.942Z,30.84
2022-08-21T14:58:26.909Z,30.86
2022-08-21T15:00:54.915Z,30.94
2022-08-21T15:03:22.843Z,31.03
2022-08-21T15:05:50.066Z,31.15
2022-08-21T15:08:17.067Z,31.16
2022-08-21T15:11:08.243Z,31.14
2022-08-21T15:13:31.721Z,31.11
2022-08-21T15:15:59.150Z,31.16
2022-08-21T15:18:29.020Z,31.17
2022-08-21T15:20:55.569Z,31.22
2022-08-21T15:23:22.642Z,31.21
2022-08-21T15:25:50.301Z,31.21
2022-08-21T15:28:18.999Z,31.36
2022-08-21T15:30:46.235Z,31.42
2022-08-21T15:33:12.851Z,31.59
2022-08-21T15:35:41.201Z,31.72
2022-08-21T15:38:11.196Z,31.77
2022-08-21T15:40:39.393Z,31.84
2022-08-21T15:43:29.915Z,31.92
2022-08-21T15:45:59.221Z,31.84
2022-08-21T15:48:25.732Z,31.83
2022-08-21T15:50:52.135Z,31.68
2022-08-21T15:53:18.738Z,31.57
2022-08-21T15:55:45.246Z,31.51
2022-08-21T15:58:16.626Z,31.47
2022-08-21T16:00:45.116Z,31.20
2022-08-21T16:03:17.621Z,31.31
2022-08-21T16:05:49.537Z,31.21
2022-08-21T16:08:16.085Z,31.27
2022-08-21T16:10:42.677Z,31.21
2022-08-21T16:13:20.988Z,31.24
2022-08-21T16:15:47.425Z,31.22
2022-08-21T16:18:14.181Z,31.13
2022-08-21T16:20:41.052Z,30.92
2022-08-21T16:23:07.602Z,30.96
2022-08-21T16:25:37.852Z,30.90
2022-08-21T16:28:09.372Z,30.81
2022-08-21T16:30:38.782Z,30.68
2022-08-21T16:33:06.762Z,30.37
2022-08-21T16:35:33.398Z,30.50
2022-08-21T16:37:59.873Z,30.44
2022-08-21T16:40:27.731Z,30.30
2022-08-21T16:42:54.436Z,30.21
2022-08-21T16:45:21.880Z,30.13
2022-08-21T16:47:48.562Z,29.97
2022-08-21T16:50:19.385Z,29.85
2022-08-21T16:52:45.813Z,29.64
2022-08-21T16:55:12.390Z,29.50
2022-08-21T16:57:38.963Z,29.30
2022-08-21T17:00:14.039Z,29.14
2022-08-21T17:02:45.441Z,28.97
2022-08-21T17:05:12.899Z,28.81
2022-08-21T17:07:41.514Z,28.69
2022-08-21T17:10:09.494Z,28.50
2022-08-21T17:12:36.705Z,28.44
2022-08-21T17:15:13.250Z,28.33
2022-08-21T17:17:39.730Z,28.19
2022-08-21T17:20:06.860Z,27.99
2022-08-21T17:22:33.398Z,27.89
2022-08-21T17:24:59.920Z,27.79
2022-08-21T17:27:28.173Z,27.69
2022-08-21T17:29:56.040Z,27.55
2022-08-21T17:32:23.229Z,27.42
2022-08-21T17:34:49.708Z,27.26
2022-08-21T17:37:16.571Z,26.97
2022-08-21T17:39:43.243Z,26.77
2022-08-21T17:42:13.605Z,26.76
2022-08-21T17:44:43.565Z,26.53
2022-08-21T17:47:10.510Z,26.56
2022-08-21T17:49:37.568Z,26.12
2022-08-21T17:52:04.736Z,25.88
2022-08-21T17:54:31.248Z,25.71
2022-08-21T17:56:58.206Z,25.44
2022-08-21T17:59:24.908Z,25.15
2022-08-21T18:01:51.433Z,25.17
2022-08-21T18:04:18.098Z,25.00
2022-08-21T18:06:45.146Z,24.77
2022-08-21T18:09:12.828Z,24.70
2022-08-21T18:11:41.899Z,24.56
2022-08-21T18:14:10.383Z,24.41
2022-08-21T18:16:37.793Z,24.28
2022-08-21T18:19:15.815Z,24.16
2022-08-21T18:21:42.389Z,24.03
2022-08-21T18:24:08.914Z,23.90
2022-08-21T18:26:39.344Z,23.80
2022-08-21T18:29:08.664Z,23.72
2022-08-21T18:31:38.025Z,23.65
2022-08-21T18:34:17.017Z,23.38
2022-08-21T18:36:46.046Z,23.36
2022-08-21T18:39:34.974Z,23.33
2022-08-21T18:42:02.461Z,23.21
2022-08-21T18:44:30.304Z,23.01
2022-08-21T18:47:07.367Z,23.09
2022-08-21T18:49:34.355Z,22.97
2022-08-21T18:52:00.828Z,22.88
2022-08-21T18:54:29.817Z,22.69
2022-08-21T18:56:56.454Z,22.72
2022-08-21T18:59:26.889Z,22.66
2022-08-21T19:01:54.325Z,22.55
2022-08-21T19:04:42.962Z,22.40
2022-08-21T19:07:07.551Z,22.46
2022-08-21T19:09:33.961Z,22.38
2022-08-21T19:12:00.521Z,22.30
2022-08-21T19:14:28.284Z,22.26
2022-08-21T19:16:54.897Z,22.12
2022-08-21T19:19:21.377Z,22.14
2022-08-21T19:21:49.451Z,22.05
2022-08-21T19:27:02.736Z,21.94
2022-08-21T19:29:35.026Z,21.86
2022-08-21T19:32:15.682Z,21.79
2022-08-21T19:34:44.721Z,21.71
2022-08-21T19:37:16.196Z,21.61
2022-08-21T19:39:48.601Z,21.55
2022-08-21T19:42:17.225Z,21.28
2022-08-21T19:44:45.241Z,21.40
2022-08-21T19:47:19.156Z,21.30
2022-08-21T19:49:54.314Z,21.27
2022-08-21T19:52:21.906Z,21.14
2022-08-21T19:54:48.915Z,21.08
2022-08-21T19:57:16.507Z,21.01
2022-08-21T19:59:43.532Z,20.96
2022-08-21T20:02:12.122Z,20.86
2022-08-21T20:04:38.922Z,20.84
2022-08-21T20:07:26.513Z,20.83
2022-08-21T20:09:54.058Z,20.81
2022-08-21T20:12:20.539Z,20.74
2022-08-21T20:14:47.803Z,20.79
2022-08-21T20:17:17.467Z,20.78
2022-08-21T20:19:45.131Z,20.76
2022-08-21T20:22:12.122Z,20.71
2022-08-21T20:24:39.564Z,20.67
2022-08-21T20:27:10.319Z,20.61
2022-08-21T20:29:39.366Z,20.61
2022-08-21T20:32:07.942Z,20.57
2022-08-21T20:34:39.402Z,20.52
2022-08-21T20:37:05.911Z,20.39
2022-08-21T20:39:32.357Z,20.46
2022-08-21T20:41:58.895Z,20.42
2022-08-21T20:44:30.953Z,20.39
2022-08-21T20:46:59.138Z,20.37
2022-08-21T20:49:31.789Z,20.33
2022-08-21T20:52:00.870Z,20.15
2022-08-21T20:54:56.170Z,20.32
2022-08-21T20:57:51.113Z,20.15
2022-08-21T21:00:21.173Z,20.19
2022-08-21T21:03:01.708Z,20.17
2022-08-21T21:05:36.542Z,20.13
2022-08-21T21:08:25.217Z,20.12
2022-08-21T21:10:58.080Z,20.08
2022-08-21T21:13:33.949Z,20.06
2022-08-21T21:16:08.501Z,20.01
2022-08-21T21:18:42.905Z,20.01
2022-08-21T21:21:32.970Z,20.02
2022-08-21T21:24:12.094Z,19.97
2022-08-21T21:26:48.720Z,19.91
2022-08-21T21:29:30.036Z,19.88
2022-08-21T21:31:56.886Z,19.81
2022-08-21T21:34:26.725Z,19.79
2022-08-21T21:37:05.858Z,19.79
2022-08-21T21:39:50.746Z,19.77
2022-08-21T21:42:41.545Z,19.75
2022-08-21T21:45:23.600Z,19.71
2022-08-21T21:48:03.578Z,19.67
2022-08-21T21:51:01.131Z,19.67
2022-08-21T21:53:55.330Z,19.69
2022-08-21T21:57:10.013Z,19.69
2022-08-21T22:00:01.271Z,19.75
2022-08-21T22:02:30.745Z,19.76
2022-08-21T22:05:18.201Z,19.81
2022-08-21T22:07:54.917Z,19.81
2022-08-21T22:13:26.564Z,19.91
2022-08-21T22:15:54.493Z,19.92
2022-08-21T22:18:26.987Z,19.95
2022-08-21T22:21:11.956Z,19.97
2022-08-21T22:23:44.901Z,19.98
2022-08-21T22:26:16.755Z,19.98
2022-08-21T22:28:47.398Z,19.96
2022-08-21T22:31:21.814Z,19.99
2022-08-21T22:34:02.384Z,19.99
2022-08-21T22:36:35.713Z,19.84
2022-08-21T22:39:11.939Z,19.94
2022-08-21T22:41:44.075Z,19.93
2022-08-21T22:44:27.460Z,19.94
2022-08-21T22:46:57.089Z,19.90
2022-08-21T22:49:35.355Z,19.90
2022-08-21T22:52:08.007Z,19.91
2022-08-21T22:54:45.183Z,19.90
2022-08-21T22:57:21.784Z,19.89
2022-08-21T23:00:00.636Z,19.92
2022-08-21T23:02:43.528Z,19.91
2022-08-21T23:05:34.688Z,19.94
2022-08-21T23:08:46.318Z,19.93
2022-08-21T23:11:20.895Z,19.87
2022-08-21T23:13:52.630Z,19.87
2022-08-21T23:16:25.053Z,19.87
2022-08-21T23:18:51.956Z,19.85
2022-08-21T23:21:57.743Z,19.87
2022-08-21T23:24:33.559Z,19.83
2022-08-21T23:27:18.729Z,19.81
2022-08-21T23:30:03.282Z,19.79
2022-08-21T23:32:52.546Z,19.74
2022-08-21T23:35:59.634Z,19.75
2022-08-21T23:38:51.316Z,19.72
2022-08-21T23:41:44.190Z,19.72
2022-08-21T23:44:33.136Z,19.67
2022-08-21T23:47:14.495Z,19.67
2022-08-21T23:49:47.700Z,19.66
2022-08-21T23:52:19.842Z,19.64
2022-08-21T23:54:52.392Z,19.62
2022-08-21T23:57:39.398Z,19.63
